Mossel Bay, South Africa

1:48 AM SAST on August 26, 2016 (GMT +0200)
Mossel Bay Extension 7 | | Change Station

Elev 0 ft 34.18 °S, 22.12 °E | Updated 2 minutes ago

Overcast
Overcast
56.3 °F
Feels Like 56.3 °F
N
0.6
Wind Variable Wind from East
Gusts 1.2 mph

Today
High -- | Low -- °F
--% Chance of Precip.
Yesterday
High -- | Low -- °F
Precip. -- in
Pressure 30.27 in
Visibility 6.2 miles
Clouds Overcast 3200 ft
Dew Point 52 °F
Humidity 85%
Rainfall 0.00 in
Snow Depth Not available.
6:57 AM 6:09 PM
Last Quarter, 41% visible
METAR FAGG 252300Z AUTO 07004KT 9999 OVC032/// 12/10 Q1025
Pressure 30.27 in
Visibility 6.2 miles
Clouds Overcast 3200 ft
Dew Point 52 °F
Humidity 85%
Rainfall 0.00 in
Snow Depth Not available.
6:57 AM 6:09 PM
Last Quarter, 41% visible
METAR FAGG 252300Z AUTO 07004KT 9999 OVC032/// 12/10 Q1025

10-Day Weather Forecast

No radar image for this location.
×

Almanac

Astronomy

Aug. 26, 2016 Rise Set
Actual Time
Civil Twilight
Nautical Twilight
Astronomical Twilight
Moon
Length of Visible Light
Length of Day
Tomorrow will be .
, % of the Moon is Illuminated

Today's Extremes

Country Highs Country Lows

Community

WunderPhotos

Upload Photos

1,934,967 photos uploaded!

WunderBlog® & News

Nearby

Air Quality

  Air Quality AQ Index Pollutant
Not available.

Snow Depth

Station Depth Elevation

Earthquake Activity

City Distance Mag. Time & Date
Minimum magnitude displayed is 2.5.

Coastal Water Temperatures

Place Temperature

Stations

Nearby Weather Stations

Station Location Temp. Windchill Dew Point Humidity Wind Precip. Elev Updated Type